createdAt,value
2019-01-10T00:00:14.786Z,2.92
2019-01-10T00:02:43.452Z,2.99
2019-01-10T00:05:12.459Z,3.01
2019-01-10T00:07:41.230Z,2.88
2019-01-10T00:10:14.032Z,3.02
2019-01-10T00:12:42.730Z,2.92
2019-01-10T00:15:14.491Z,2.39
2019-01-10T00:17:43.074Z,2.02
2019-01-10T00:20:13.696Z,1.96
2019-01-10T00:22:42.273Z,2.13
2019-01-10T00:25:12.897Z,2.32
2019-01-10T00:27:41.498Z,2.55
2019-01-10T00:30:13.276Z,2.68
2019-01-10T00:32:41.895Z,2.70
2019-01-10T00:35:11.577Z,2.85
2019-01-10T00:37:40.231Z,2.96
2019-01-10T00:40:11.493Z,3.04
2019-01-10T00:42:48.778Z,3.08
2019-01-10T00:45:12.820Z,3.26
2019-01-10T00:47:41.340Z,3.13
2019-01-10T00:50:15.721Z,2.71
2019-01-10T00:52:44.323Z,2.45
2019-01-10T00:55:13.082Z,2.20
2019-01-10T00:57:41.634Z,2.24
2019-01-10T01:00:13.386Z,2.33
2019-01-10T01:02:42.015Z,2.35
2019-01-10T01:05:13.048Z,2.34
2019-01-10T01:07:41.697Z,2.42
2019-01-10T01:10:13.590Z,2.59
2019-01-10T01:12:42.185Z,2.64
2019-01-10T01:15:12.961Z,2.61
2019-01-10T01:17:41.595Z,2.70
2019-01-10T01:20:11.982Z,2.85
2019-01-10T01:22:40.615Z,3.05
2019-01-10T01:25:10.900Z,2.94
2019-01-10T01:27:39.435Z,2.74
2019-01-10T01:30:16.571Z,2.39
2019-01-10T01:32:45.276Z,2.18
2019-01-10T01:35:14.801Z,2.15
2019-01-10T01:37:43.285Z,2.27
2019-01-10T01:40:14.856Z,2.33
2019-01-10T01:42:43.535Z,2.38
2019-01-10T01:45:13.964Z,2.32
2019-01-10T01:47:42.741Z,2.44
2019-01-10T01:50:23.071Z,2.44
2019-01-10T01:52:53.634Z,2.43
2019-01-10T01:55:22.596Z,2.57
2019-01-10T01:57:51.239Z,2.82
2019-01-10T02:00:22.055Z,2.69
2019-01-10T02:02:50.623Z,2.57
2019-01-10T02:05:19.466Z,2.26
2019-01-10T02:07:48.367Z,2.23
2019-01-10T02:10:20.010Z,2.28
2019-01-10T02:12:48.649Z,2.26
2019-01-10T02:15:17.272Z,2.35
2019-01-10T02:17:49.196Z,2.35
2019-01-10T02:20:16.283Z,2.44
2019-01-10T02:22:45.120Z,2.58
2019-01-10T02:25:15.730Z,2.71
2019-01-10T02:27:44.449Z,2.71
2019-01-10T02:30:23.996Z,2.70
2019-01-10T02:32:53.145Z,2.97
2019-01-10T02:35:21.746Z,2.98
2019-01-10T02:37:50.453Z,2.83
2019-01-10T02:40:19.228Z,2.58
2019-01-10T02:42:47.899Z,2.31
2019-01-10T02:45:17.298Z,2.21
2019-01-10T02:47:45.852Z,2.30
2019-01-10T02:50:20.448Z,2.40
2019-01-10T02:52:49.406Z,2.39
2019-01-10T02:55:18.009Z,2.33
2019-01-10T02:57:46.601Z,2.24
2019-01-10T03:00:21.121Z,2.40
2019-01-10T03:02:49.700Z,2.49
2019-01-10T03:05:18.537Z,2.56
2019-01-10T03:07:47.127Z,2.71
2019-01-10T03:10:18.978Z,2.81
2019-01-10T03:12:47.534Z,2.51
2019-01-10T03:15:16.140Z,2.19
2019-01-10T03:17:44.629Z,2.12
2019-01-10T03:20:16.350Z,2.08
2019-01-10T03:22:44.937Z,2.20
2019-01-10T03:25:13.541Z,2.29
2019-01-10T03:27:42.144Z,2.47
2019-01-10T03:30:13.775Z,2.71
2019-01-10T03:32:42.477Z,2.86
2019-01-10T03:35:11.647Z,2.87
2019-01-10T03:37:40.207Z,2.89
2019-01-10T03:40:14.555Z,2.94
2019-01-10T03:42:43.231Z,3.01
2019-01-10T03:45:14.351Z,3.08
2019-01-10T03:47:43.074Z,2.71
2019-01-10T03:50:13.274Z,2.34
2019-01-10T03:52:41.902Z,2.17
2019-01-10T03:55:10.509Z,2.17
2019-01-10T03:57:39.137Z,2.16
2019-01-10T04:00:10.665Z,2.21
2019-01-10T04:02:39.249Z,2.32
2019-01-10T04:05:08.001Z,2.44
2019-01-10T04:07:36.620Z,2.42
2019-01-10T04:10:07.144Z,2.54
2019-01-10T04:12:35.641Z,2.56
2019-01-10T04:15:05.392Z,2.64
2019-01-10T04:17:34.011Z,2.69
2019-01-10T04:20:02.542Z,2.92
2019-01-10T04:22:31.083Z,2.94
2019-01-10T04:24:59.616Z,2.58
2019-01-10T04:27:28.238Z,2.29
2019-01-10T04:29:56.749Z,2.13
2019-01-10T04:32:25.333Z,2.08
2019-01-10T04:34:54.649Z,2.21
2019-01-10T04:37:23.341Z,2.32
2019-01-10T04:39:52.353Z,2.45
2019-01-10T04:42:21.944Z,2.58
2019-01-10T04:44:50.443Z,2.64
2019-01-10T04:47:19.124Z,2.68
2019-01-10T04:49:47.741Z,2.71
2019-01-10T04:52:16.386Z,2.71
2019-01-10T04:54:45.094Z,2.93
2019-01-10T04:57:13.685Z,3.08
2019-01-10T04:59:42.299Z,2.72
2019-01-10T05:02:18.261Z,2.39
2019-01-10T05:04:41.107Z,2.13
2019-01-10T05:07:09.712Z,2.09
2019-01-10T05:09:38.210Z,2.17
2019-01-10T05:12:06.718Z,2.26
2019-01-10T05:14:35.290Z,2.29
2019-01-10T05:17:03.828Z,2.40
2019-01-10T05:19:32.416Z,2.54
2019-01-10T05:22:01.025Z,2.62
2019-01-10T05:24:29.697Z,2.65
2019-01-10T05:26:58.252Z,2.58
2019-01-10T05:29:26.820Z,2.67
2019-01-10T05:31:55.370Z,2.92
2019-01-10T05:34:23.954Z,2.79
2019-01-10T05:36:52.562Z,2.55
2019-01-10T05:39:21.065Z,2.25
2019-01-10T05:41:49.620Z,2.08
2019-01-10T05:44:26.427Z,2.11
2019-01-10T05:46:48.997Z,2.30
2019-01-10T05:49:17.568Z,2.49
2019-01-10T05:51:46.089Z,2.70
2019-01-10T05:54:14.529Z,2.91
2019-01-10T05:56:43.308Z,3.06
2019-01-10T05:59:11.830Z,3.14
2019-01-10T06:01:40.437Z,3.18
2019-01-10T06:04:09.103Z,3.06
2019-01-10T06:06:37.654Z,3.21
2019-01-10T06:09:08.695Z,2.99
2019-01-10T06:11:37.390Z,2.76
2019-01-10T06:14:06.009Z,2.32
2019-01-10T06:16:34.631Z,1.78
2019-01-10T06:19:03.291Z,1.82
2019-01-10T06:21:31.764Z,2.04
2019-01-10T06:24:00.329Z,2.29
2019-01-10T06:26:28.935Z,2.49
2019-01-10T06:28:57.499Z,2.66
2019-01-10T06:31:26.144Z,2.79
2019-01-10T06:33:54.729Z,2.92
2019-01-10T06:36:23.317Z,2.95
2019-01-10T06:38:51.870Z,2.86
2019-01-10T06:41:20.456Z,2.92
2019-01-10T06:43:48.985Z,3.03
2019-01-10T06:46:17.546Z,2.85
2019-01-10T06:48:46.118Z,2.44
2019-01-10T06:51:14.679Z,2.22
2019-01-10T06:53:43.277Z,2.05
2019-01-10T06:56:11.865Z,2.05
2019-01-10T06:58:40.481Z,2.27
2019-01-10T07:01:08.939Z,2.40
2019-01-10T07:03:37.558Z,2.54
2019-01-10T07:06:06.190Z,2.68
2019-01-10T07:08:34.794Z,2.69
2019-01-10T07:11:03.416Z,2.74
2019-01-10T07:13:31.962Z,2.82
2019-01-10T07:16:00.487Z,2.83
2019-01-10T07:18:29.091Z,3.04
2019-01-10T07:20:57.700Z,3.07
2019-01-10T07:23:26.775Z,2.46
2019-01-10T07:25:55.900Z,2.46
2019-01-10T07:28:24.575Z,2.32
2019-01-10T07:30:54.723Z,2.35
2019-01-10T07:33:24.010Z,2.41
2019-01-10T07:35:54.313Z,2.52
2019-01-10T07:38:22.831Z,2.79
2019-01-10T07:40:51.362Z,2.84
2019-01-10T07:43:22.155Z,2.98
2019-01-10T07:45:50.776Z,3.06
2019-01-10T07:48:19.384Z,3.19
2019-01-10T07:50:48.181Z,3.20
2019-01-10T07:53:16.975Z,3.20
2019-01-10T07:55:45.563Z,3.26
2019-01-10T07:58:14.251Z,2.94
2019-01-10T08:00:42.834Z,2.22
2019-01-10T08:03:11.447Z,1.83
2019-01-10T08:05:40.109Z,2.05
2019-01-10T08:08:09.232Z,2.25
2019-01-10T08:10:37.981Z,2.45
2019-01-10T08:13:06.779Z,2.67
2019-01-10T08:15:35.320Z,2.86
2019-01-10T08:18:04.047Z,2.95
2019-01-10T08:20:32.708Z,3.04
2019-01-10T08:23:01.479Z,3.18
2019-01-10T08:25:30.069Z,3.29
2019-01-10T08:27:58.879Z,3.22
2019-01-10T08:30:27.849Z,3.24
2019-01-10T08:32:56.527Z,3.16
2019-01-10T08:35:25.508Z,2.92
2019-01-10T08:37:54.074Z,2.86
2019-01-10T08:40:22.709Z,2.73
2019-01-10T08:42:51.404Z,2.74
2019-01-10T08:45:21.922Z,2.70
2019-01-10T08:47:50.668Z,2.88
2019-01-10T08:50:23.846Z,3.03
2019-01-10T08:52:52.752Z,3.18
2019-01-10T08:55:21.671Z,3.31
2019-01-10T08:57:50.262Z,3.32
2019-01-10T09:00:21.056Z,3.35
2019-01-10T09:02:49.598Z,3.45
2019-01-10T09:05:18.371Z,3.64
2019-01-10T09:07:46.990Z,3.54
2019-01-10T09:10:24.173Z,2.74
2019-01-10T09:12:52.879Z,2.74
2019-01-10T09:15:25.326Z,2.62
2019-01-10T09:17:51.814Z,2.69
2019-01-10T09:20:20.410Z,2.79
2019-01-10T09:22:49.029Z,2.93
2019-01-10T09:25:17.990Z,2.86
2019-01-10T09:27:46.628Z,2.94
2019-01-10T09:30:17.619Z,3.03
2019-01-10T09:32:46.464Z,3.18
2019-01-10T09:35:15.134Z,3.31
2019-01-10T09:37:43.980Z,3.30
2019-01-10T09:40:14.645Z,3.46
2019-01-10T09:42:43.258Z,3.64
2019-01-10T09:45:14.780Z,3.37
2019-01-10T09:47:43.398Z,2.74
2019-01-10T09:50:14.589Z,2.34
2019-01-10T09:52:43.202Z,2.40
2019-01-10T09:55:11.979Z,2.55
2019-01-10T09:57:40.599Z,2.51
2019-01-10T10:00:23.060Z,2.74
2019-01-10T10:02:51.573Z,3.02
2019-01-10T10:05:20.387Z,3.33
2019-01-10T10:07:48.975Z,3.48
2019-01-10T10:10:19.468Z,3.65
2019-01-10T10:12:48.268Z,3.63
2019-01-10T10:15:18.566Z,3.61
2019-01-10T10:17:47.191Z,3.78
2019-01-10T10:20:18.489Z,3.56
2019-01-10T10:22:47.091Z,3.47
2019-01-10T10:25:15.721Z,3.18
2019-01-10T10:27:44.397Z,3.20
2019-01-10T10:30:15.629Z,3.34
2019-01-10T10:32:44.216Z,3.53
2019-01-10T10:35:13.229Z,3.74
2019-01-10T10:37:41.860Z,3.70
2019-01-10T10:40:15.705Z,3.89
2019-01-10T10:42:44.368Z,3.97
2019-01-10T10:45:15.258Z,3.89
2019-01-10T10:47:43.877Z,3.95
2019-01-10T10:50:15.230Z,4.04
2019-01-10T10:52:44.019Z,4.23
2019-01-10T10:55:12.749Z,4.13
2019-01-10T10:57:41.403Z,3.93
2019-01-10T11:00:19.663Z,3.79
2019-01-10T11:02:48.483Z,3.75
2019-01-10T11:05:17.159Z,3.75
2019-01-10T11:07:45.726Z,3.90
2019-01-10T11:10:17.232Z,4.10
2019-01-10T11:12:45.913Z,4.27
2019-01-10T11:15:14.758Z,4.34
2019-01-10T11:17:43.376Z,4.45
2019-01-10T11:20:14.716Z,4.52
2019-01-10T11:22:44.427Z,4.58
2019-01-10T11:25:15.644Z,4.74
2019-01-10T11:27:44.333Z,4.86
2019-01-10T11:30:15.541Z,4.82
2019-01-10T11:32:44.139Z,4.45
2019-01-10T11:35:12.936Z,4.19
2019-01-10T11:37:41.609Z,4.08
2019-01-10T11:40:18.696Z,4.14
2019-01-10T11:42:47.386Z,4.34
2019-01-10T11:45:18.816Z,4.50
2019-01-10T11:47:47.380Z,4.58
2019-01-10T11:50:16.675Z,4.83
2019-01-10T11:52:45.731Z,5.02
2019-01-10T11:55:14.957Z,5.01
2019-01-10T11:57:43.759Z,4.94
2019-01-10T12:00:15.335Z,4.99
2019-01-10T12:02:43.839Z,4.98
2019-01-10T12:05:12.463Z,5.16
2019-01-10T12:07:41.054Z,5.10
2019-01-10T12:10:11.264Z,4.65
2019-01-10T12:12:39.884Z,4.16
2019-01-10T12:15:10.591Z,4.03
2019-01-10T12:17:39.145Z,4.14
2019-01-10T12:20:13.502Z,4.31
2019-01-10T12:22:42.133Z,4.54
2019-01-10T12:25:12.943Z,4.72
2019-01-10T12:27:41.543Z,5.02
2019-01-10T12:30:15.854Z,5.04
2019-01-10T12:32:44.432Z,5.17
2019-01-10T12:35:13.264Z,5.32
2019-01-10T12:37:41.843Z,5.50
2019-01-10T12:40:12.981Z,5.67
2019-01-10T12:42:41.663Z,5.42
2019-01-10T12:45:12.559Z,5.01
2019-01-10T12:47:41.194Z,4.85
2019-01-10T12:50:12.638Z,4.80
2019-01-10T12:52:41.224Z,4.83
2019-01-10T12:55:09.863Z,4.79
2019-01-10T12:57:38.486Z,5.02
2019-01-10T13:00:15.794Z,5.14
2019-01-10T13:02:44.564Z,5.27
2019-01-10T13:05:13.654Z,5.39
2019-01-10T13:07:42.298Z,5.35
2019-01-10T13:10:13.814Z,5.39
2019-01-10T13:12:42.405Z,5.55
2019-01-10T13:15:14.035Z,5.76
2019-01-10T13:17:42.687Z,5.68
2019-01-10T13:20:12.320Z,5.40
2019-01-10T13:22:40.918Z,5.06
2019-01-10T13:25:12.209Z,4.88
2019-01-10T13:27:40.848Z,4.89
2019-01-10T13:30:21.191Z,4.92
2019-01-10T13:32:50.212Z,4.96
2019-01-10T13:35:18.996Z,5.05
2019-01-10T13:37:47.576Z,5.19
2019-01-10T13:40:16.577Z,5.28
2019-01-10T13:42:45.248Z,5.34
2019-01-10T13:45:15.421Z,5.45
2019-01-10T13:47:45.573Z,5.56
2019-01-10T13:50:20.281Z,5.71
2019-01-10T13:52:49.094Z,5.78
2019-01-10T13:55:19.281Z,5.41
2019-01-10T13:57:48.210Z,4.83
2019-01-10T14:00:19.778Z,4.45
2019-01-10T14:02:48.406Z,4.48
2019-01-10T14:05:17.132Z,4.54
2019-01-10T14:07:46.002Z,4.63
2019-01-10T14:10:16.422Z,4.78
2019-01-10T14:12:45.000Z,4.97
2019-01-10T14:15:20.045Z,5.22
2019-01-10T14:17:48.615Z,5.55
2019-01-10T14:20:17.398Z,5.55
2019-01-10T14:22:46.033Z,5.50
2019-01-10T14:25:15.537Z,5.61
2019-01-10T14:27:44.787Z,5.69
2019-01-10T14:30:22.026Z,5.31
2019-01-10T14:32:50.814Z,5.10
2019-01-10T14:35:20.179Z,4.69
2019-01-10T14:37:49.206Z,4.46
2019-01-10T14:40:18.303Z,4.53
2019-01-10T14:42:46.925Z,4.75
2019-01-10T14:45:17.422Z,5.06
2019-01-10T14:47:46.088Z,5.28
2019-01-10T14:50:16.606Z,5.41
2019-01-10T14:52:45.532Z,5.46
2019-01-10T14:55:15.773Z,5.38
2019-01-10T14:57:44.497Z,5.44
2019-01-10T15:00:18.659Z,5.49
2019-01-10T15:02:47.335Z,5.61
2019-01-10T15:05:15.969Z,5.20
2019-01-10T15:07:44.574Z,4.42
2019-01-10T15:10:13.693Z,3.75
2019-01-10T15:12:42.708Z,3.70
2019-01-10T15:15:13.936Z,3.86
2019-01-10T15:17:42.550Z,4.01
2019-01-10T15:20:14.268Z,4.33
2019-01-10T15:22:42.878Z,4.66
2019-01-10T15:25:11.479Z,4.84
2019-01-10T15:27:40.113Z,5.04
2019-01-10T15:30:11.600Z,5.20
2019-01-10T15:32:40.223Z,5.23
2019-01-10T15:35:09.224Z,5.10
2019-01-10T15:37:37.967Z,5.20
2019-01-10T15:40:09.528Z,4.83
2019-01-10T15:42:38.159Z,4.07
2019-01-10T15:45:08.076Z,3.44
2019-01-10T15:47:36.790Z,3.22
2019-01-10T15:50:08.263Z,3.29
2019-01-10T15:52:36.901Z,3.52
2019-01-10T15:55:07.888Z,3.95
2019-01-10T15:57:36.501Z,4.19
2019-01-10T16:00:08.094Z,4.30
2019-01-10T16:02:36.713Z,4.48
2019-01-10T16:05:06.674Z,4.61
2019-01-10T16:07:35.518Z,4.58
2019-01-10T16:10:06.473Z,4.44
2019-01-10T16:12:35.115Z,4.52
2019-01-10T16:15:05.823Z,4.49
2019-01-10T16:17:34.461Z,3.89
2019-01-10T16:20:07.097Z,3.35
2019-01-10T16:22:35.718Z,2.99
2019-01-10T16:25:06.745Z,3.08
2019-01-10T16:27:35.275Z,3.47
2019-01-10T16:30:07.251Z,3.84
2019-01-10T16:32:35.839Z,4.02
2019-01-10T16:35:06.183Z,4.35
2019-01-10T16:37:34.883Z,4.45
2019-01-10T16:40:07.013Z,4.45
2019-01-10T16:42:35.633Z,4.56
2019-01-10T16:45:07.291Z,4.46
2019-01-10T16:47:35.743Z,4.38
2019-01-10T16:50:07.885Z,4.58
2019-01-10T16:52:36.477Z,4.00
2019-01-10T16:55:06.471Z,3.23
2019-01-10T16:57:35.079Z,2.74
2019-01-10T17:00:07.680Z,2.79
2019-01-10T17:02:36.354Z,3.23
2019-01-10T17:05:05.975Z,3.73
2019-01-10T17:07:34.642Z,4.19
2019-01-10T17:10:04.750Z,4.53
2019-01-10T17:12:33.355Z,4.75
2019-01-10T17:15:01.990Z,4.94
2019-01-10T17:17:30.600Z,5.13
2019-01-10T17:19:59.303Z,5.27
2019-01-10T17:22:27.924Z,5.06
2019-01-10T17:24:56.552Z,4.92
2019-01-10T17:27:25.177Z,4.58
2019-01-10T17:29:53.687Z,3.80
2019-01-10T17:32:22.336Z,3.10
2019-01-10T17:34:51.275Z,3.00
2019-01-10T17:37:19.955Z,3.30
2019-01-10T17:39:48.569Z,3.58
2019-01-10T17:42:17.257Z,3.90
2019-01-10T17:44:45.879Z,4.26
2019-01-10T17:47:14.494Z,4.53
2019-01-10T17:49:43.088Z,4.57
2019-01-10T17:52:11.692Z,4.45
2019-01-10T17:54:40.191Z,4.35
2019-01-10T17:57:08.801Z,4.33
2019-01-10T17:59:37.398Z,4.43
2019-01-10T18:02:06.134Z,4.64
2019-01-10T18:04:35.585Z,4.31
2019-01-10T18:07:04.268Z,3.69
2019-01-10T18:09:32.828Z,3.31
2019-01-10T18:12:01.482Z,3.39
2019-01-10T18:14:30.106Z,3.66
2019-01-10T18:16:58.718Z,4.05
2019-01-10T18:19:27.392Z,4.31
2019-01-10T18:21:56.000Z,4.37
2019-01-10T18:24:24.595Z,4.30
2019-01-10T18:26:53.154Z,4.33
2019-01-10T18:29:21.782Z,4.31
2019-01-10T18:31:50.353Z,4.37
2019-01-10T18:34:19.038Z,4.34
2019-01-10T18:36:47.696Z,4.51
2019-01-10T18:39:16.228Z,4.04
2019-01-10T18:41:44.827Z,3.34
2019-01-10T18:44:13.459Z,2.99
2019-01-10T18:46:42.195Z,3.04
2019-01-10T18:49:10.820Z,3.29
2019-01-10T18:51:39.414Z,3.75
2019-01-10T18:54:08.058Z,4.14
2019-01-10T18:56:36.726Z,4.42
2019-01-10T18:59:06.109Z,4.60
2019-01-10T19:01:34.731Z,4.69
2019-01-10T19:04:03.338Z,4.76
2019-01-10T19:06:31.884Z,4.72
2019-01-10T19:09:00.552Z,4.68
2019-01-10T19:11:29.173Z,4.80
2019-01-10T19:13:57.783Z,4.65
2019-01-10T19:16:26.354Z,4.28
2019-01-10T19:18:55.035Z,3.69
2019-01-10T19:21:23.573Z,3.51
2019-01-10T19:23:52.222Z,3.68
2019-01-10T19:26:20.845Z,4.00
2019-01-10T19:28:49.438Z,4.34
2019-01-10T19:31:18.086Z,4.74
2019-01-10T19:33:46.699Z,4.94
2019-01-10T19:36:15.458Z,5.04
2019-01-10T19:38:43.907Z,5.07
2019-01-10T19:41:12.545Z,5.24
2019-01-10T19:43:41.083Z,5.14
2019-01-10T19:46:09.705Z,5.03
2019-01-10T19:48:38.407Z,4.94
2019-01-10T19:51:07.046Z,4.25
2019-01-10T19:53:35.605Z,3.46
2019-01-10T19:56:04.371Z,2.94
2019-01-10T19:58:33.085Z,2.99
2019-01-10T20:01:01.673Z,3.43
2019-01-10T20:03:30.299Z,3.70
2019-01-10T20:05:58.915Z,4.02
2019-01-10T20:08:27.385Z,4.13
2019-01-10T20:10:56.027Z,4.25
2019-01-10T20:13:24.672Z,4.43
2019-01-10T20:15:53.364Z,4.48
2019-01-10T20:18:22.032Z,4.36
2019-01-10T20:20:50.743Z,4.34
2019-01-10T20:23:21.416Z,4.56
2019-01-10T20:25:50.024Z,4.41
2019-01-10T20:28:18.608Z,3.88
2019-01-10T20:30:47.230Z,3.39
2019-01-10T20:33:15.832Z,3.18
2019-01-10T20:35:44.465Z,3.37
2019-01-10T20:38:13.071Z,3.82
2019-01-10T20:40:42.560Z,4.23
2019-01-10T20:43:11.226Z,4.34
2019-01-10T20:45:39.792Z,4.47
2019-01-10T20:48:08.438Z,4.54
2019-01-10T20:50:37.632Z,4.63
2019-01-10T20:53:06.281Z,4.64
2019-01-10T20:55:35.000Z,4.63
2019-01-10T20:58:03.798Z,4.84
2019-01-10T21:00:32.580Z,4.76
2019-01-10T21:03:01.208Z,4.23
2019-01-10T21:05:29.912Z,3.51
2019-01-10T21:07:58.559Z,3.25
2019-01-10T21:10:27.157Z,3.47
2019-01-10T21:12:56.717Z,3.93
2019-01-10T21:15:27.983Z,4.28
2019-01-10T21:17:56.624Z,4.54
2019-01-10T21:20:25.295Z,4.71
2019-01-10T21:22:53.934Z,4.84
2019-01-10T21:25:22.597Z,4.92
2019-01-10T21:27:51.209Z,4.98
2019-01-10T21:30:22.257Z,5.05
2019-01-10T21:32:51.019Z,4.96
2019-01-10T21:35:21.598Z,5.10
2019-01-10T21:37:50.197Z,4.78
2019-01-10T21:40:23.702Z,4.12
2019-01-10T21:42:53.498Z,3.74
2019-01-10T21:45:22.920Z,3.49
2019-01-10T21:47:51.553Z,3.76
2019-01-10T21:50:22.403Z,4.03
2019-01-10T21:52:51.120Z,4.25
2019-01-10T21:55:20.870Z,4.24
2019-01-10T21:57:49.618Z,4.31
2019-01-10T22:00:26.930Z,4.46
2019-01-10T22:02:56.297Z,4.41
2019-01-10T22:05:25.043Z,4.36
2019-01-10T22:07:53.931Z,4.41
2019-01-10T22:10:22.566Z,4.70
2019-01-10T22:12:51.271Z,4.66
2019-01-10T22:15:19.997Z,4.47
2019-01-10T22:17:48.630Z,4.03
2019-01-10T22:20:20.127Z,3.81
2019-01-10T22:22:48.637Z,3.93
2019-01-10T22:25:17.466Z,3.96
2019-01-10T22:27:46.031Z,4.10
2019-01-10T22:30:20.235Z,4.26
2019-01-10T22:32:49.019Z,4.35
2019-01-10T22:35:19.735Z,4.41
2019-01-10T22:37:48.453Z,4.28
2019-01-10T22:40:18.873Z,4.08
2019-01-10T22:42:47.575Z,4.09
2019-01-10T22:45:17.015Z,4.13
2019-01-10T22:47:45.994Z,4.22
2019-01-10T22:50:17.656Z,3.84
2019-01-10T22:52:46.374Z,3.40
2019-01-10T22:55:15.957Z,3.17
2019-01-10T22:57:44.577Z,3.23
2019-01-10T23:00:57.122Z,3.44
2019-01-10T23:03:26.023Z,3.71
2019-01-10T23:05:54.710Z,3.82
2019-01-10T23:08:23.411Z,3.83
2019-01-10T23:10:53.437Z,3.96
2019-01-10T23:13:22.173Z,3.96
2019-01-10T23:15:50.694Z,3.90
2019-01-10T23:18:19.302Z,3.83
2019-01-10T23:20:53.696Z,3.88
2019-01-10T23:23:22.609Z,3.93
2019-01-10T23:25:53.270Z,3.70
2019-01-10T23:28:22.122Z,3.40
2019-01-10T23:30:56.038Z,3.33
2019-01-10T23:33:26.001Z,3.25
2019-01-10T23:35:59.940Z,3.39
2019-01-10T23:38:29.215Z,3.39
2019-01-10T23:40:58.506Z,3.48
2019-01-10T23:43:27.116Z,3.58
2019-01-10T23:45:55.754Z,3.59
2019-01-10T23:48:24.426Z,3.65
2019-01-10T23:50:53.671Z,3.53
2019-01-10T23:53:22.337Z,3.57
2019-01-10T23:55:51.035Z,3.63
2019-01-10T23:58:19.741Z,3.90
